createdAt,value
2018-09-26T00:00:35.070Z,76.5
2018-09-26T00:05:34.682Z,76.7
2018-09-26T00:10:34.880Z,76.9
2018-09-26T00:15:34.537Z,76.4
2018-09-26T00:20:34.502Z,76.9
2018-09-26T00:25:34.590Z,77.4
2018-09-26T00:30:34.810Z,77.7
2018-09-26T00:35:35.553Z,77.5
2018-09-26T00:40:34.769Z,77.9
2018-09-26T00:45:35.084Z,77.6
2018-09-26T00:50:34.819Z,78.3
2018-09-26T00:55:34.848Z,78.2
2018-09-26T01:00:34.753Z,78.9
2018-09-26T01:05:34.467Z,78.8
2018-09-26T01:10:34.777Z,78.9
2018-09-26T01:15:34.511Z,79.6
2018-09-26T01:20:34.716Z,79.2
2018-09-26T01:25:34.936Z,79.6
2018-09-26T01:30:34.600Z,79.7
2018-09-26T01:35:36.987Z,78.9
2018-09-26T01:40:34.610Z,79.5
2018-09-26T01:45:34.372Z,79.4
2018-09-26T01:50:34.638Z,79
2018-09-26T01:55:34.657Z,79.4
2018-09-26T02:00:34.494Z,80
2018-09-26T02:05:35.276Z,80.2
2018-09-26T02:10:35.137Z,79.9
2018-09-26T02:15:35.679Z,80.9
2018-09-26T02:20:35.240Z,81.2
2018-09-26T02:25:34.232Z,81.1
2018-09-26T02:30:34.225Z,80.9
2018-09-26T02:35:34.445Z,80.3
2018-09-26T02:40:34.444Z,80
2018-09-26T02:45:34.338Z,80.3
2018-09-26T02:50:34.308Z,79.9
2018-09-26T02:55:34.302Z,80
2018-09-26T03:00:34.656Z,80.3
2018-09-26T03:05:34.261Z,80.9
2018-09-26T03:10:34.544Z,81.1
2018-09-26T03:15:34.519Z,81
2018-09-26T03:20:34.471Z,80.9
2018-09-26T03:25:34.608Z,80.9
2018-09-26T03:30:34.536Z,80.7
2018-09-26T03:35:34.671Z,81.2
2018-09-26T03:40:34.097Z,81.3
2018-09-26T03:45:34.170Z,81.6
2018-09-26T03:50:34.363Z,81.6
2018-09-26T03:55:34.148Z,82.2
2018-09-26T04:00:34.723Z,81.6
2018-09-26T04:05:34.975Z,81.4
2018-09-26T04:10:33.985Z,81.6
2018-09-26T04:15:34.321Z,81.8
2018-09-26T04:20:33.984Z,81.8
2018-09-26T04:25:34.242Z,82.3
2018-09-26T04:30:34.216Z,82.3
2018-09-26T04:35:34.011Z,82.4
2018-09-26T04:40:34.227Z,82.9
2018-09-26T04:45:34.364Z,83.4
2018-09-26T04:50:34.138Z,83.4
2018-09-26T04:55:34.335Z,84.4
2018-09-26T05:00:34.223Z,83.4
2018-09-26T05:05:34.295Z,83.6
2018-09-26T05:10:33.893Z,83.3
2018-09-26T05:15:34.088Z,83.5
2018-09-26T05:20:34.119Z,84.2
2018-09-26T05:25:34.235Z,83.7
2018-09-26T05:30:34.144Z,84.5
2018-09-26T05:35:34.199Z,84.1
2018-09-26T05:40:33.882Z,83.9
2018-09-26T05:45:33.936Z,83.1
2018-09-26T05:50:34.004Z,84.1
2018-09-26T05:55:33.972Z,83.5
2018-09-26T06:00:34.010Z,83.3
2018-09-26T06:05:34.232Z,83.2
2018-09-26T06:10:34.256Z,82.6
2018-09-26T06:15:34.157Z,81.9
2018-09-26T06:20:34.181Z,81.3
2018-09-26T06:25:33.939Z,80.5
2018-09-26T06:30:34.123Z,79.2
2018-09-26T06:35:34.269Z,78.9
2018-09-26T06:40:34.401Z,79
2018-09-26T06:45:34.145Z,79.3
2018-09-26T06:50:34.211Z,79.4
2018-09-26T06:55:34.040Z,79.7
2018-09-26T07:00:34.034Z,78.6
2018-09-26T07:05:33.937Z,79.1
2018-09-26T07:10:33.814Z,78.5
2018-09-26T07:15:34.165Z,77.9
2018-09-26T07:20:34.161Z,79.5
2018-09-26T07:25:54.297Z,79.5
2018-09-26T07:30:53.495Z,79
2018-09-26T07:35:51.812Z,78.5
2018-09-26T07:40:49.990Z,76.9
2018-09-26T08:05:39.551Z,72.8
2018-09-26T08:10:51.271Z,71.2
2018-09-26T08:15:35.028Z,71.8
2018-09-26T08:20:34.817Z,70
2018-09-26T08:25:34.842Z,69.1
2018-09-26T08:30:35.013Z,68.3
2018-09-26T08:35:34.954Z,67.6
2018-09-26T08:40:34.855Z,65.6
2018-09-26T08:45:35.330Z,66
2018-09-26T08:50:35.112Z,64.4
2018-09-26T08:55:35.485Z,63.9
2018-09-26T09:00:35.277Z,64.1
2018-09-26T09:05:35.134Z,63.7
2018-09-26T09:10:35.068Z,61.9
2018-09-26T09:15:35.534Z,59.6
2018-09-26T09:20:35.453Z,60.3
2018-09-26T09:25:35.311Z,60
2018-09-26T09:30:35.511Z,60
2018-09-26T09:35:35.422Z,58.3
2018-09-26T09:40:35.297Z,57.7
2018-09-26T09:45:35.704Z,57.4
2018-09-26T09:50:35.085Z,57.8
2018-09-26T09:55:35.399Z,57
2018-09-26T10:00:34.860Z,56.2
2018-09-26T10:05:35.095Z,56.4
2018-09-26T10:10:35.099Z,56.8
2018-09-26T10:15:35.066Z,57.1
2018-09-26T10:20:35.611Z,57.4
2018-09-26T10:25:35.085Z,57.1
2018-09-26T10:30:35.911Z,57.9
2018-09-26T10:35:34.873Z,57.2
2018-09-26T10:40:35.174Z,58.7
2018-09-26T10:45:34.990Z,58.1
2018-09-26T10:50:35.659Z,57
2018-09-26T10:55:35.017Z,57.2
2018-09-26T11:00:35.511Z,57.2
2018-09-26T11:05:35.135Z,58.2
2018-09-26T11:10:34.956Z,57.7
2018-09-26T11:15:34.889Z,57.5
2018-09-26T11:20:35.105Z,58
2018-09-26T11:25:35.120Z,57.5
2018-09-26T11:30:35.290Z,58
2018-09-26T11:35:34.685Z,58.1
2018-09-26T11:40:34.848Z,58.4
2018-09-26T11:45:35.855Z,57.7
2018-09-26T11:50:35.054Z,58.1
2018-09-26T11:55:35.325Z,57.5
2018-09-26T12:00:36.202Z,56.2
2018-09-26T12:05:35.975Z,55.4
2018-09-26T12:10:34.940Z,55.2
2018-09-26T12:15:35.016Z,55.1
2018-09-26T12:20:34.541Z,54.2
2018-09-26T12:25:35.512Z,54
2018-09-26T12:30:34.910Z,53
2018-09-26T12:35:35.039Z,53.5
2018-09-26T12:40:34.844Z,52.9
2018-09-26T12:45:35.108Z,53
2018-09-26T12:50:35.081Z,53.2
2018-09-26T12:55:35.702Z,51.4
2018-09-26T13:00:34.921Z,50.9
2018-09-26T13:05:35.041Z,51.7
2018-09-26T13:10:34.595Z,51.6
2018-09-26T13:15:34.413Z,51.8
2018-09-26T13:20:34.778Z,50.5
2018-09-26T13:25:36.092Z,50.7
2018-09-26T13:30:37.288Z,51.3
2018-09-26T13:35:35.793Z,51.9
2018-09-26T13:40:35.575Z,51.6
2018-09-26T13:45:36.648Z,51.3
2018-09-26T13:50:35.957Z,50.3
2018-09-26T13:55:37.899Z,48.8
2018-09-26T14:00:41.239Z,49.4
2018-09-26T14:05:37.723Z,50.1
2018-09-26T14:10:36.147Z,50.1
2018-09-26T14:15:40.788Z,51.3
2018-09-26T14:20:35.442Z,51.1
2018-09-26T14:26:14.170Z,52.9
2018-09-26T14:30:39.044Z,51.9
2018-09-26T14:35:44.063Z,50.5
2018-09-26T14:40:43.952Z,50.8
2018-09-26T14:46:22.068Z,52.2
2018-09-26T14:51:05.657Z,51.4
2018-09-26T14:57:17.959Z,50.9
2018-09-26T15:01:40.718Z,51.1
2018-09-26T15:05:48.104Z,48.1
2018-09-26T15:10:35.320Z,46.8
2018-09-26T15:15:38.992Z,47.8
2018-09-26T15:20:50.232Z,50.4
2018-09-26T15:26:10.803Z,52.1
2018-09-26T15:30:39.262Z,52.7
2018-09-26T15:35:45.839Z,50.9
2018-09-26T15:40:34.661Z,52.3
2018-09-26T15:45:34.322Z,49.4
2018-09-26T15:50:34.241Z,50.6
2018-09-26T15:55:42.174Z,51.5
2018-09-26T16:00:35.319Z,51.5
2018-09-26T16:06:38.270Z,52.1
2018-09-26T16:12:14.334Z,52.7
2018-09-26T16:16:02.217Z,53.2
2018-09-26T16:21:44.118Z,53.6
2018-09-26T16:29:17.665Z,56.8
2018-09-26T16:34:23.942Z,57.6
2018-09-26T16:40:27.926Z,56.7
2018-09-26T16:46:58.703Z,56.8
2018-09-26T16:50:58.732Z,57.3
2018-09-26T16:55:42.448Z,57.9
2018-09-26T17:05:22.190Z,59.3
2018-09-26T17:13:09.281Z,59.9
2018-09-26T17:14:34.149Z,60.3
2018-09-26T17:17:37.784Z,60.5
2018-09-26T17:25:15.237Z,62.1
2018-09-26T17:34:24.621Z,62.5
2018-09-26T17:41:01.210Z,62.5
2018-09-26T17:46:18.371Z,63.3
2018-09-26T17:54:38.370Z,63.1
2018-09-26T18:02:32.168Z,63.3
2018-09-26T18:13:24.055Z,63.6
2018-09-26T18:21:21.253Z,64.7
2018-09-26T18:28:53.934Z,65.9
2018-09-26T18:38:31.147Z,66.7
2018-09-26T18:40:52.277Z,66.5
2018-09-26T18:47:20.598Z,67.1
2018-09-26T18:55:42.558Z,67.3
2018-09-26T19:07:02.705Z,68.4
2018-09-26T19:14:07.820Z,68.4
2018-09-26T19:24:37.831Z,68.1
2018-09-26T19:34:45.358Z,69.7
2018-09-26T19:43:20.501Z,70.3
2018-09-26T19:50:15.711Z,70.7
2018-09-26T20:00:14.770Z,70.8
2018-09-26T20:09:47.620Z,71.7
2018-09-26T20:16:10.952Z,72.3
2018-09-26T20:24:21.704Z,72.9
2018-09-26T20:29:19.995Z,73.9
2018-09-26T20:31:55.417Z,74.4
2018-09-26T20:41:42.904Z,74.8
2018-09-26T20:56:43.551Z,74
2018-09-26T21:10:58.568Z,74.7
2018-09-26T21:20:59.129Z,75.4
2018-09-26T21:31:44.244Z,76.6
2018-09-26T21:42:57.381Z,76.2
2018-09-26T21:52:15.295Z,77.6
2018-09-26T21:58:52.626Z,77.7
2018-09-26T22:05:56.121Z,78.8
2018-09-26T22:13:16.766Z,78.9
2018-09-26T22:20:16.766Z,79.2
2018-09-26T22:28:43.929Z,78.9
2018-09-26T22:38:41.986Z,79.8
2018-09-26T22:49:12.383Z,79.5
2018-09-26T23:00:54.691Z,80.5
2018-09-26T23:09:58.849Z,79.7
2018-09-26T23:20:29.911Z,80.8
2018-09-26T23:48:53.584Z,81.7
2018-09-26T23:59:51.768Z,81.5
